Time;durP1;ratioP1;P1;durP2;ratioP2;P2;SDS_P1;SDS_P2;PMS_P1;PMS_P2;Temp;Humidity;BMP_temperature;BMP_pressure;BME280_temperature;BME280_humidity;BME280_pressure;Samples;Min_cycle;Max_cycle;Signal;HPM_P1;HPM_P2
2022/04/30 00:02:15;;;;;;;;;;;;;;;;;;5052165;28;20304;-79
2022/04/30 00:04:41;;;;;;;;;;;;;;;;;;5038284;28;19960;-79
2022/04/30 00:07:07;;;;;;;;;;;;;;;;;;5037634;28;19920;-79
2022/04/30 00:09:33;;;;;;;;;;;;;;;;;;5038710;28;19939;-78
2022/04/30 00:11:59;;;;;;;;;;;;;;;;;;5034646;28;20447;-79
2022/04/30 00:14:25;;;;;;;;;;;;;;;;;;5045504;28;19924;-79
2022/04/30 00:16:51;;;;;;;;;;;;;;;;;;5018446;28;19920;-79
2022/04/30 00:19:16;;;;;;;;;;;;;;;;;;5023667;28;19917;-79
2022/04/30 00:21:43;;;;;;;;;;;;;;;;;;5036177;28;19917;-79
2022/04/30 00:24:09;;;;;;;;;;;;;;;;;;5039029;28;21221;-79
2022/04/30 00:26:35;;;;;;;;;;;;;;;;;;5033194;28;19920;-79
2022/04/30 00:29:01;;;;;;;;;;;;;;;;;;5042041;28;19921;-79
2022/04/30 00:31:27;;;;;;;;;;;;;;;;;;5035977;28;19913;-79
2022/04/30 00:33:53;;;;;;;;;;;;;;;;;;5022655;28;20399;-79
2022/04/30 00:36:19;;;;;;;;;;;;;;;;;;5013935;28;19944;-79
2022/04/30 00:38:44;;;;;;;;;;;;;;;;;;5020264;28;19924;-79
2022/04/30 00:41:10;;;;;;;;;;;;;;;;;;5035292;28;20385;-79
2022/04/30 00:43:36;;;;;;;;;;;;;;;;;;5017362;28;20024;-79
2022/04/30 00:46:02;;;;;;;;;;;;;;;;;;5022204;28;20007;-79
2022/04/30 00:48:28;;;;;;;;;;;;;;;;;;5033533;28;20380;-79
2022/04/30 00:50:54;;;;;;;;;;;;;;;;;;5015869;28;20730;-79
2022/04/30 00:53:21;;;;;;;;;;;;;;;;;;5037456;28;20003;-79
2022/04/30 00:55:47;;;;;;;;;;;;;;;;;;5038983;28;19913;-79
2022/04/30 00:58:12;;;;;;;;;;;;;;;;;;5036475;28;20284;-79
2022/04/30 01:00:40;;;;;;;;;;;;;;;;;;5021374;28;20339;-78
2022/04/30 01:03:06;;;;;;;;;;;;;;;;;;5028003;28;19912;-79
2022/04/30 01:05:33;;;;;;;;;;;;;;;;;;5033912;28;20353;-79
2022/04/30 01:07:59;;;;;;;;;;;;;;;;;;5020219;28;20448;-78
2022/04/30 01:10:25;;;;;;;;;;;;;;;;;;5015974;28;19925;-79
2022/04/30 01:12:51;;;;;;;;;;;;;;;;;;5038526;28;19912;-79
2022/04/30 01:15:17;;;;;;;;;;;;;;;;;;5019991;28;19916;-79
2022/04/30 01:17:43;;;;;;;;;;;;;;;;;;5034552;28;20326;-79
2022/04/30 01:20:09;;;;;;;;;;;;;;;;;;5031400;28;19945;-79
2022/04/30 01:22:35;;;;;;;;;;;;;;;;;;5035204;28;19921;-79
2022/04/30 01:25:00;;;;;;;;;;;;;;;;;;5033315;28;19917;-78
2022/04/30 01:27:26;;;;;;;;;;;;;;;;;;5021155;28;20372;-79
2022/04/30 01:29:52;;;;;;;;;;;;;;;;;;5031842;28;19916;-80
2022/04/30 01:37:48;;;;;;;;;;;;;;;;;;5041277;28;20398;-80
2022/04/30 01:40:14;;;;;;;;;;;;;;;;;;5037379;28;19917;-79
2022/04/30 01:42:40;;;;;;;;;;;;;;;;;;5020537;28;19916;-79
2022/04/30 01:45:06;;;;;;;;;;;;;;;;;;5029085;28;20295;-80
2022/04/30 01:47:33;;;;;;;;;;;;;;;;;;5019342;28;19917;-80
2022/04/30 01:49:59;;;;;;;;;;;;;;;;;;5021919;28;20320;-79
2022/04/30 01:52:25;;;;;;;;;;;;;;;;;;5021100;28;19960;-80
2022/04/30 01:54:51;;;;;;;;;;;;;;;;;;5040921;28;19913;-81
2022/04/30 01:57:23;;;;;;;;;;;;;;;;;;5039907;28;20015;-80
2022/04/30 01:59:49;;;;;;;;;;;;;;;;;;5022205;28;19924;-79
2022/04/30 02:02:14;;;;;;;;;;;;;;;;;;5034553;28;19921;-79
2022/04/30 02:04:40;;;;;;;;;;;;;;;;;;5003980;28;20379;-79
2022/04/30 02:07:06;;;;;;;;;;;;;;;;;;4996864;28;20321;-79
2022/04/30 02:09:39;;;;;;;;;;;;;;;;;;5014403;28;19928;-79
2022/04/30 02:12:05;;;;;;;;;;;;;;;;;;5016781;28;19983;-78
2022/04/30 02:14:31;;;;;;;;;;;;;;;;;;4999490;28;20565;-79
2022/04/30 02:16:57;;;;;;;;;;;;;;;;;;5020231;28;20327;-79
2022/04/30 02:19:23;;;;;;;;;;;;;;;;;;5010598;28;19939;-79
2022/04/30 02:21:49;;;;;;;;;;;;;;;;;;5015541;28;20007;-79
2022/04/30 02:24:15;;;;;;;;;;;;;;;;;;5011133;28;19928;-79
2022/04/30 02:26:41;;;;;;;;;;;;;;;;;;4997500;28;19917;-78
2022/04/30 02:29:08;;;;;;;;;;;;;;;;;;4998963;28;19916;-78
2022/04/30 02:31:34;;;;;;;;;;;;;;;;;;5017430;28;20189;-79
2022/04/30 02:34:00;;;;;;;;;;;;;;;;;;4997435;28;20000;-79
2022/04/30 02:36:26;;;;;;;;;;;;;;;;;;4997464;28;20479;-79
2022/04/30 02:38:52;;;;;;;;;;;;;;;;;;5010879;28;19924;-79
2022/04/30 02:41:20;;;;;;;;;;;;;;;;;;4991833;28;19984;-78
2022/04/30 02:43:46;;;;;;;;;;;;;;;;;;4994695;28;20300;-79
2022/04/30 02:46:12;;;;;;;;;;;;;;;;;;4997232;28;19914;-78
2022/04/30 02:48:38;;;;;;;;;;;;;;;;;;4998570;28;20364;-79
2022/04/30 02:51:04;;;;;;;;;;;;;;;;;;5012421;28;19917;-78
2022/04/30 02:53:30;;;;;;;;;;;;;;;;;;5010119;28;20053;-79
2022/04/30 02:55:56;;;;;;;;;;;;;;;;;;5013694;28;20052;-79
2022/04/30 03:01:08;;;;;;;;;;;;;;;;;;5024632;28;20012;-79
2022/04/30 03:03:34;;;;;;;;;;;;;;;;;;5001165;28;19913;-79
2022/04/30 03:06:00;;;;;;;;;;;;;;;;;;5002343;28;19925;-79
2022/04/30 03:08:26;;;;;;;;;;;;;;;;;;5019930;28;19949;-78
2022/04/30 03:10:55;;;;;;;;;;;;;;;;;;5002490;28;20348;-78
2022/04/30 03:13:21;;;;;;;;;;;;;;;;;;5020710;28;20912;-79
2022/04/30 03:15:47;;;;;;;;;;;;;;;;;;5003303;28;19913;-78
2022/04/30 03:23:30;;;;;;;;;;;;;;;;;;5021527;28;19948;-79
2022/04/30 03:25:56;;;;;;;;;;;;;;;;;;5002946;28;20341;-79
2022/04/30 03:28:22;;;;;;;;;;;;;;;;;;5014170;28;19913;-79
2022/04/30 03:30:48;;;;;;;;;;;;;;;;;;5010895;28;19921;-79
2022/04/30 03:33:13;;;;;;;;;;;;;;;;;;5003229;28;20288;-79
2022/04/30 03:35:39;;;;;;;;;;;;;;;;;;4998944;28;20455;-79
2022/04/30 03:38:06;;;;;;;;;;;;;;;;;;5012922;28;20004;-79
2022/04/30 03:40:31;;;;;;;;;;;;;;;;;;5003338;28;19967;-79
2022/04/30 03:42:57;;;;;;;;;;;;;;;;;;5006941;28;20008;-79
2022/04/30 03:45:23;;;;;;;;;;;;;;;;;;5013226;28;19917;-79
2022/04/30 03:47:50;;;;;;;;;;;;;;;;;;5019502;28;19913;-79
2022/04/30 03:50:16;;;;;;;;;;;;;;;;;;5006917;28;20750;-79
2022/04/30 03:52:41;;;;;;;;;;;;;;;;;;5017604;28;19917;-79
2022/04/30 03:55:08;;;;;;;;;;;;;;;;;;5000333;28;19928;-79
2022/04/30 03:57:34;;;;;;;;;;;;;;;;;;4999084;28;19913;-79
2022/04/30 04:00:01;;;;;;;;;;;;;;;;;;5017579;28;20004;-79
2022/04/30 04:02:27;;;;;;;;;;;;;;;;;;5000471;28;19990;-79
2022/04/30 04:04:52;;;;;;;;;;;;;;;;;;5008716;28;19939;-79
2022/04/30 04:07:18;;;;;;;;;;;;;;;;;;5031915;28;19917;-79
2022/04/30 04:09:44;;;;;;;;;;;;;;;;;;5019959;28;19923;-79
2022/04/30 04:12:10;;;;;;;;;;;;;;;;;;5024553;28;19912;-79
2022/04/30 04:17:39;;;;;;;;;;;;;;;;;;5027069;28;20023;-78
2022/04/30 04:20:05;;;;;;;;;;;;;;;;;;5032282;28;19971;-79
2022/04/30 04:22:31;;;;;;;;;;;;;;;;;;5019727;28;20168;-79
2022/04/30 04:27:42;;;;;;;;;;;;;;;;;;5041174;28;19928;-79
2022/04/30 04:30:07;;;;;;;;;;;;;;;;;;5035674;28;20106;-79
2022/04/30 04:32:33;;;;;;;;;;;;;;;;;;5033138;28;20427;-79
2022/04/30 04:34:59;;;;;;;;;;;;;;;;;;5022379;28;19913;-79
2022/04/30 04:37:25;;;;;;;;;;;;;;;;;;5036206;28;19921;-79
2022/04/30 04:39:51;;;;;;;;;;;;;;;;;;5019459;28;19917;-78
2022/04/30 04:42:19;;;;;;;;;;;;;;;;;;5017691;28;19921;-79
2022/04/30 04:44:45;;;;;;;;;;;;;;;;;;5016868;28;19957;-79
2022/04/30 04:47:11;;;;;;;;;;;;;;;;;;5015208;28;20407;-78
2022/04/30 04:49:37;;;;;;;;;;;;;;;;;;5018741;28;19932;-79
2022/04/30 04:52:03;;;;;;;;;;;;;;;;;;5033200;28;19996;-79
2022/04/30 04:54:29;;;;;;;;;;;;;;;;;;5021504;28;20352;-79
2022/04/30 04:56:55;;;;;;;;;;;;;;;;;;5018735;28;20020;-79
2022/04/30 04:59:21;;;;;;;;;;;;;;;;;;5033255;28;19917;-78
2022/04/30 05:01:48;;;;;;;;;;;;;;;;;;5018496;28;20011;-79
2022/04/30 05:04:14;;;;;;;;;;;;;;;;;;5021220;28;19921;-79
2022/04/30 05:06:40;;;;;;;;;;;;;;;;;;5032786;28;20007;-78
2022/04/30 05:09:06;;;;;;;;;;;;;;;;;;5028152;28;19920;-78
2022/04/30 05:11:32;;;;;;;;;;;;;;;;;;5027975;28;19974;-79
2022/04/30 05:13:58;;;;;;;;;;;;;;;;;;5034427;28;19924;-79
2022/04/30 05:16:24;;;;;;;;;;;;;;;;;;5015825;28;19920;-79
2022/04/30 05:18:50;;;;;;;;;;;;;;;;;;5038515;28;19923;-78
2022/04/30 05:21:15;;;;;;;;;;;;;;;;;;5032785;28;20356;-79
2022/04/30 05:23:41;;;;;;;;;;;;;;;;;;5016231;28;19927;-79
2022/04/30 05:26:07;;;;;;;;;;;;;;;;;;5033007;28;19925;-79
2022/04/30 05:28:36;;;;;;;;;;;;;;;;;;5014926;28;19964;-79
2022/04/30 05:31:02;;;;;;;;;;;;;;;;;;5016634;28;19925;-79
2022/04/30 05:33:29;;;;;;;;;;;;;;;;;;5027337;28;20435;-79
2022/04/30 05:35:57;;;;;;;;;;;;;;;;;;5019094;28;19920;-79
2022/04/30 05:38:23;;;;;;;;;;;;;;;;;;5033800;28;19917;-79
2022/04/30 05:40:49;;;;;;;;;;;;;;;;;;5013484;28;23104;-78
2022/04/30 05:43:15;;;;;;;;;;;;;;;;;;5020107;28;20372;-79
2022/04/30 05:45:41;;;;;;;;;;;;;;;;;;5016356;28;19963;-78
2022/04/30 05:48:07;;;;;;;;;;;;;;;;;;5033750;28;19935;-79
2022/04/30 05:50:33;;;;;;;;;;;;;;;;;;5032216;28;20496;-79
2022/04/30 05:52:59;;;;;;;;;;;;;;;;;;5013107;28;19967;-80
2022/04/30 05:55:25;;;;;;;;;;;;;;;;;;5027603;28;19960;-79
2022/04/30 05:57:51;;;;;;;;;;;;;;;;;;5031579;28;19947;-80
2022/04/30 06:00:17;;;;;;;;;;;;;;;;;;5033105;28;19987;-79
2022/04/30 06:02:43;;;;;;;;;;;;;;;;;;5036104;28;20340;-78
2022/04/30 06:05:09;;;;;;;;;;;;;;;;;;5025420;28;19932;-78
2022/04/30 06:07:36;;;;;;;;;;;;;;;;;;5031719;28;19917;-79
2022/04/30 06:10:04;;;;;;;;;;;;;;;;;;5036013;28;19913;-79
2022/04/30 06:12:30;;;;;;;;;;;;;;;;;;5027082;28;19913;-79
2022/04/30 06:15:02;;;;;;;;;;;;;;;;;;5017461;28;20264;-79
2022/04/30 06:17:28;;;;;;;;;;;;;;;;;;5022059;28;19967;-79
2022/04/30 06:19:54;;;;;;;;;;;;;;;;;;5025701;28;20331;-79
2022/04/30 06:22:20;;;;;;;;;;;;;;;;;;5037289;28;19967;-78
2022/04/30 06:24:46;;;;;;;;;;;;;;;;;;5039400;28;19951;-80
2022/04/30 06:27:12;;;;;;;;;;;;;;;;;;5037834;28;19919;-79
2022/04/30 06:29:38;;;;;;;;;;;;;;;;;;5021118;28;20376;-79
2022/04/30 06:32:04;;;;;;;;;;;;;;;;;;5029718;28;19921;-79
2022/04/30 06:34:31;;;;;;;;;;;;;;;;;;5042727;28;19917;-79
2022/04/30 06:36:57;;;;;;;;;;;;;;;;;;5038692;28;19913;-78
2022/04/30 06:39:23;;;;;;;;;;;;;;;;;;5041711;28;19924;-79
2022/04/30 06:41:49;;;;;;;;;;;;;;;;;;5036944;28;19913;-79
2022/04/30 06:44:15;;;;;;;;;;;;;;;;;;5024311;28;19925;-79
2022/04/30 06:46:41;;;;;;;;;;;;;;;;;;5021681;28;19917;-79
2022/04/30 06:49:08;;;;;;;;;;;;;;;;;;5041338;28;19912;-79
2022/04/30 06:51:34;;;;;;;;;;;;;;;;;;5024692;28;19912;-79
2022/04/30 06:59:31;;;;;;;;;;;;;;;;;;5040585;28;19971;-79
2022/04/30 07:02:00;;;;;;;;;;;;;;;;;;5038422;28;19996;-79
2022/04/30 07:04:26;;;;;;;;;;;;;;;;;;5025392;28;19925;-79
2022/04/30 07:06:52;;;;;;;;;;;;;;;;;;5022140;28;20262;-79
2022/04/30 07:09:18;;;;;;;;;;;;;;;;;;5018566;28;19923;-78
2022/04/30 07:11:45;;;;;;;;;;;;;;;;;;5022214;28;19913;-80
2022/04/30 07:14:11;;;;;;;;;;;;;;;;;;5031916;28;20435;-79
2022/04/30 07:16:36;;;;;;;;;;;;;;;;;;5021581;28;19916;-79
2022/04/30 07:19:03;;;;;;;;;;;;;;;;;;5037773;28;19913;-80
2022/04/30 07:21:30;;;;;;;;;;;;;;;;;;5042497;28;20141;-79
2022/04/30 07:23:56;;;;;;;;;;;;;;;;;;5035250;28;20061;-79
2022/04/30 07:26:22;;;;;;;;;;;;;;;;;;5033917;28;19913;-79
2022/04/30 07:28:48;;;;;;;;;;;;;;;;;;5041193;28;19951;-79
2022/04/30 07:31:13;;;;;;;;;;;;;;;;;;5024537;28;20320;-79
2022/04/30 07:33:39;;;;;;;;;;;;;;;;;;5021990;28;19940;-79
2022/04/30 07:36:05;;;;;;;;;;;;;;;;;;5023514;28;20380;-81
2022/04/30 07:38:31;;;;;;;;;;;;;;;;;;5033079;28;19920;-79
2022/04/30 07:40:57;;;;;;;;;;;;;;;;;;5020480;28;20476;-78
2022/04/30 07:43:23;;;;;;;;;;;;;;;;;;5037269;28;19944;-79
2022/04/30 07:45:49;;;;;;;;;;;;;;;;;;5039328;28;19917;-79
2022/04/30 07:48:15;;;;;;;;;;;;;;;;;;5025569;28;19951;-79
2022/04/30 07:50:45;;;;;;;;;;;;;;;;;;5021135;28;19917;-80
2022/04/30 07:53:10;;;;;;;;;;;;;;;;;;5023168;28;20262;-79
2022/04/30 07:55:36;;;;;;;;;;;;;;;;;;5041629;28;19971;-79
2022/04/30 07:58:02;;;;;;;;;;;;;;;;;;5029969;28;19913;-80
2022/04/30 08:00:28;;;;;;;;;;;;;;;;;;5039671;28;19917;-79
2022/04/30 08:02:54;;;;;;;;;;;;;;;;;;5038019;28;19921;-80
2022/04/30 08:05:20;;;;;;;;;;;;;;;;;;5038565;28;20095;-81
2022/04/30 08:07:46;;;;;;;;;;;;;;;;;;5005946;28;19913;-80
2022/04/30 08:10:12;;;;;;;;;;;;;;;;;;5023969;28;19917;-79
2022/04/30 08:12:38;;;;;;;;;;;;;;;;;;5019252;28;19913;-80
2022/04/30 08:15:04;;;;;;;;;;;;;;;;;;5001520;28;19913;-80
2022/04/30 08:17:29;;;;;;;;;;;;;;;;;;5020082;28;21067;-80
2022/04/30 08:19:56;;;;;;;;;;;;;;;;;;5022163;28;19917;-79
2022/04/30 08:22:21;;;;;;;;;;;;;;;;;;5004823;28;20508;-80
2022/04/30 08:24:48;;;;;;;;;;;;;;;;;;5022247;28;19921;-80
2022/04/30 08:27:13;;;;;;;;;;;;;;;;;;5007018;28;20018;-80
2022/04/30 08:29:39;;;;;;;;;;;;;;;;;;5023394;28;19920;-79
2022/04/30 08:32:05;;;;;;;;;;;;;;;;;;5018358;28;19920;-80
2022/04/30 08:34:32;;;;;;;;;;;;;;;;;;5003353;28;19913;-79
2022/04/30 08:36:57;;;;;;;;;;;;;;;;;;5004935;28;19956;-79
2022/04/30 08:39:23;;;;;;;;;;;;;;;;;;5004970;28;19954;-80
2022/04/30 08:41:50;;;;;;;;;;;;;;;;;;5006675;28;20184;-80
2022/04/30 08:44:16;;;;;;;;;;;;;;;;;;5001521;28;19925;-81
2022/04/30 08:46:42;;;;;;;;;;;;;;;;;;5003858;28;20177;-80
2022/04/30 08:49:08;;;;;;;;;;;;;;;;;;5005580;28;20346;-80
2022/04/30 08:51:34;;;;;;;;;;;;;;;;;;5003198;28;19943;-80
2022/04/30 08:54:00;;;;;;;;;;;;;;;;;;5009797;28;19914;-80
2022/04/30 08:56:26;;;;;;;;;;;;;;;;;;5018595;28;19917;-79
2022/04/30 08:58:52;;;;;;;;;;;;;;;;;;4998112;28;20047;-80
2022/04/30 09:01:18;;;;;;;;;;;;;;;;;;5000451;28;19917;-79
2022/04/30 09:03:44;;;;;;;;;;;;;;;;;;4998947;28;20114;-80
2022/04/30 09:06:10;;;;;;;;;;;;;;;;;;5029043;28;20482;-80
2022/04/30 09:08:36;;;;;;;;;;;;;;;;;;5024770;28;20330;-79
2022/04/30 09:11:02;;;;;;;;;;;;;;;;;;5036744;28;19917;-79
2022/04/30 09:13:28;;;;;;;;;;;;;;;;;;5039670;28;20419;-80
2022/04/30 09:15:56;;;;;;;;;;;;;;;;;;5032866;28;19921;-80
2022/04/30 09:18:22;;;;;;;;;;;;;;;;;;5017617;28;20684;-80
2022/04/30 09:20:47;;;;;;;;;;;;;;;;;;5033366;28;19924;-79
2022/04/30 09:23:13;;;;;;;;;;;;;;;;;;5010905;28;19916;-80
2022/04/30 09:25:40;;;;;;;;;;;;;;;;;;5040809;28;19912;-80
2022/04/30 09:28:06;;;;;;;;;;;;;;;;;;5056644;28;19962;-80
2022/04/30 09:30:32;;;;;;;;;;;;;;;;;;5047125;28;19912;-81
2022/04/30 09:32:58;;;;;;;;;;;;;;;;;;5039142;28;19916;-79
2022/04/30 09:38:09;;;;;;;;;;;;;;;;;;5056282;28;19977;-80
2022/04/30 09:40:35;;;;;;;;;;;;;;;;;;5057244;28;19987;-79
2022/04/30 09:43:04;;;;;;;;;;;;;;;;;;5042275;28;19928;-80
2022/04/30 09:45:30;;;;;;;;;;;;;;;;;;5032973;28;19927;-80
2022/04/30 09:47:56;;;;;;;;;;;;;;;;;;5054946;28;20299;-80
2022/04/30 09:55:53;;;;;;;;;;;;;;;;;;5055740;28;20265;-80
2022/04/30 09:58:20;;;;;;;;;;;;;;;;;;5043168;28;19970;-80
2022/04/30 10:00:46;;;;;;;;;;;;;;;;;;5056078;28;20007;-80
2022/04/30 10:03:12;;;;;;;;;;;;;;;;;;5038960;28;20031;-80
2022/04/30 10:05:38;;;;;;;;;;;;;;;;;;5036925;28;19947;-80
2022/04/30 10:08:04;;;;;;;;;;;;;;;;;;5035652;28;19917;-80
2022/04/30 10:10:31;;;;;;;;;;;;;;;;;;5031817;28;19913;-80
2022/04/30 10:12:58;;;;;;;;;;;;;;;;;;5037191;28;19925;-80
2022/04/30 10:15:25;;;;;;;;;;;;;;;;;;5036052;28;19951;-79
2022/04/30 10:17:51;;;;;;;;;;;;;;;;;;5016092;28;19955;-81
2022/04/30 10:20:19;;;;;;;;;;;;;;;;;;5030450;28;20334;-80
2022/04/30 10:22:45;;;;;;;;;;;;;;;;;;5015712;28;19928;-80
2022/04/30 10:25:11;;;;;;;;;;;;;;;;;;5015063;28;19921;-80
2022/04/30 10:27:37;;;;;;;;;;;;;;;;;;5016951;28;19917;-80
2022/04/30 10:30:03;;;;;;;;;;;;;;;;;;5018859;28;20399;-80
2022/04/30 10:32:29;;;;;;;;;;;;;;;;;;5015753;28;19917;-80
2022/04/30 10:34:55;;;;;;;;;;;;;;;;;;5016293;28;19917;-80
2022/04/30 10:37:21;;;;;;;;;;;;;;;;;;5019626;28;19919;-79
2022/04/30 10:39:47;;;;;;;;;;;;;;;;;;5025376;28;19939;-80
2022/04/30 10:42:14;;;;;;;;;;;;;;;;;;5029658;28;19921;-80
2022/04/30 10:44:40;;;;;;;;;;;;;;;;;;5021038;28;20007;-80
2022/04/30 10:47:06;;;;;;;;;;;;;;;;;;5026875;28;20501;-80
2022/04/30 10:49:32;;;;;;;;;;;;;;;;;;5020677;28;20176;-80
2022/04/30 10:51:58;;;;;;;;;;;;;;;;;;5014037;28;19913;-80
2022/04/30 10:54:24;;;;;;;;;;;;;;;;;;5032700;28;20262;-80
2022/04/30 10:56:49;;;;;;;;;;;;;;;;;;5036917;28;19924;-80
2022/04/30 10:59:15;;;;;;;;;;;;;;;;;;5013873;28;20004;-80
2022/04/30 11:01:41;;;;;;;;;;;;;;;;;;5035030;28;20482;-80
2022/04/30 11:04:07;;;;;;;;;;;;;;;;;;5017229;28;19959;-79
2022/04/30 11:06:33;;;;;;;;;;;;;;;;;;5043111;28;20276;-80
2022/04/30 11:08:59;;;;;;;;;;;;;;;;;;5033768;28;19955;-79
2022/04/30 11:11:25;;;;;;;;;;;;;;;;;;5013189;28;20420;-79
2022/04/30 11:13:51;;;;;;;;;;;;;;;;;;5036986;28;19917;-79
2022/04/30 11:16:17;;;;;;;;;;;;;;;;;;5033501;28;20020;-79
2022/04/30 11:18:43;;;;;;;;;;;;;;;;;;5037552;28;20291;-79
2022/04/30 11:21:09;;;;;;;;;;;;;;;;;;5037861;28;19912;-79
2022/04/30 11:23:35;;;;;;;;;;;;;;;;;;5043372;28;20288;-79
2022/04/30 11:26:01;;;;;;;;;;;;;;;;;;5029111;28;19917;-79
2022/04/30 11:28:27;;;;;;;;;;;;;;;;;;5040839;28;19959;-79
2022/04/30 11:30:53;;;;;;;;;;;;;;;;;;5036730;28;19921;-79
2022/04/30 11:33:19;;;;;;;;;;;;;;;;;;5037682;28;19913;-79
2022/04/30 11:35:44;;;;;;;;;;;;;;;;;;5037839;28;19917;-79
2022/04/30 11:38:11;;;;;;;;;;;;;;;;;;5035080;28;19999;-79
2022/04/30 11:40:37;;;;;;;;;;;;;;;;;;5037673;28;20404;-79
2022/04/30 11:43:03;;;;;;;;;;;;;;;;;;5039051;28;20015;-80
2022/04/30 11:45:32;;;;;;;;;;;;;;;;;;5036584;28;19948;-79
2022/04/30 11:47:57;;;;;;;;;;;;;;;;;;5036328;28;19913;-79
2022/04/30 11:50:30;;;;;;;;;;;;;;;;;;5037176;28;20197;-79
2022/04/30 11:52:56;;;;;;;;;;;;;;;;;;5039304;28;20379;-79
2022/04/30 11:55:21;;;;;;;;;;;;;;;;;;5009059;28;19920;-79
2022/04/30 11:57:47;;;;;;;;;;;;;;;;;;5033720;28;19920;-79
2022/04/30 12:00:13;;;;;;;;;;;;;;;;;;5012554;28;19921;-79
2022/04/30 12:02:39;;;;;;;;;;;;;;;;;;5033339;28;20122;-79
2022/04/30 12:05:05;;;;;;;;;;;;;;;;;;5021026;28;19968;-78
2022/04/30 12:07:31;;;;;;;;;;;;;;;;;;4998170;28;20080;-80
2022/04/30 12:09:57;;;;;;;;;;;;;;;;;;5002957;28;19916;-79
2022/04/30 12:12:23;;;;;;;;;;;;;;;;;;5025161;28;19913;-78
2022/04/30 12:14:49;;;;;;;;;;;;;;;;;;5017629;28;19981;-79
2022/04/30 12:17:16;;;;;;;;;;;;;;;;;;5002784;28;19941;-79
2022/04/30 12:25:12;;;;;;;;;;;;;;;;;;5013207;28;20009;-80
2022/04/30 12:27:38;;;;;;;;;;;;;;;;;;5014814;28;19913;-78
2022/04/30 12:30:04;;;;;;;;;;;;;;;;;;5001941;28;19917;-79
2022/04/30 12:32:38;;;;;;;;;;;;;;;;;;5001000;28;20012;-80
2022/04/30 12:35:04;;;;;;;;;;;;;;;;;;4997067;28;19963;-80
2022/04/30 12:37:30;;;;;;;;;;;;;;;;;;5013498;28;19913;-79
2022/04/30 12:39:57;;;;;;;;;;;;;;;;;;4999514;28;19972;-79
2022/04/30 12:42:22;;;;;;;;;;;;;;;;;;4997785;28;19958;-78
2022/04/30 12:44:48;;;;;;;;;;;;;;;;;;5000822;28;20293;-79
2022/04/30 12:47:14;;;;;;;;;;;;;;;;;;5010278;28;19916;-77
2022/04/30 12:49:40;;;;;;;;;;;;;;;;;;4998304;28;19917;-77
2022/04/30 12:52:06;;;;;;;;;;;;;;;;;;5010232;28;19964;-77
2022/04/30 12:54:32;;;;;;;;;;;;;;;;;;5013829;28;19921;-77
2022/04/30 12:56:58;;;;;;;;;;;;;;;;;;5014649;28;19916;-77
2022/04/30 12:59:25;;;;;;;;;;;;;;;;;;4999269;28;19921;-77
2022/04/30 13:01:51;;;;;;;;;;;;;;;;;;4998087;28;19913;-77
2022/04/30 13:04:18;;;;;;;;;;;;;;;;;;5001888;28;19928;-77
2022/04/30 13:06:44;;;;;;;;;;;;;;;;;;5031364;28;19929;-77
2022/04/30 13:14:39;;;;;;;;;;;;;;;;;;5033331;28;20573;-77
2022/04/30 13:17:05;;;;;;;;;;;;;;;;;;5020068;28;20228;-77
2022/04/30 13:19:32;;;;;;;;;;;;;;;;;;5025111;28;19913;-77
2022/04/30 13:21:59;;;;;;;;;;;;;;;;;;5037668;28;19913;-77
2022/04/30 13:24:25;;;;;;;;;;;;;;;;;;5020597;28;20000;-77
2022/04/30 13:26:51;;;;;;;;;;;;;;;;;;5033623;28;20009;-77
2022/04/30 13:29:17;;;;;;;;;;;;;;;;;;5018032;28;20090;-77
2022/04/30 13:31:43;;;;;;;;;;;;;;;;;;5015521;28;19983;-76
2022/04/30 13:34:10;;;;;;;;;;;;;;;;;;5013248;28;19960;-78
2022/04/30 13:36:36;;;;;;;;;;;;;;;;;;5010622;28;19928;-77
2022/04/30 13:39:02;;;;;;;;;;;;;;;;;;5037072;28;19912;-76
2022/04/30 13:41:28;;;;;;;;;;;;;;;;;;5021306;28;19917;-77
2022/04/30 13:43:54;;;;;;;;;;;;;;;;;;5033985;28;20109;-77
2022/04/30 13:46:20;;;;;;;;;;;;;;;;;;5036314;28;19979;-77
2022/04/30 13:48:46;;;;;;;;;;;;;;;;;;5036905;28;19917;-76
2022/04/30 13:51:12;;;;;;;;;;;;;;;;;;5022987;28;19979;-77
2022/04/30 13:53:38;;;;;;;;;;;;;;;;;;5016065;28;20280;-77
2022/04/30 13:56:04;;;;;;;;;;;;;;;;;;5033445;28;20459;-76
2022/04/30 13:58:30;;;;;;;;;;;;;;;;;;5013143;28;20284;-77
2022/04/30 14:00:56;;;;;;;;;;;;;;;;;;5024605;28;19921;-76
2022/04/30 14:03:22;;;;;;;;;;;;;;;;;;5040364;28;20240;-77
2022/04/30 14:05:48;;;;;;;;;;;;;;;;;;5031177;28;20460;-76
2022/04/30 14:08:15;;;;;;;;;;;;;;;;;;4995593;28;20036;-77
2022/04/30 14:10:41;;;;;;;;;;;;;;;;;;5015201;28;19921;-76
2022/04/30 14:15:52;;;;;;;;;;;;;;;;;;5014418;28;20073;-76
2022/04/30 14:18:24;;;;;;;;;;;;;;;;;;5009226;28;20475;-76
2022/04/30 14:20:50;;;;;;;;;;;;;;;;;;5012404;28;20635;-76
2022/04/30 14:23:16;;;;;;;;;;;;;;;;;;5019838;28;19992;-76
2022/04/30 14:25:44;;;;;;;;;;;;;;;;;;5016333;28;19917;-76
2022/04/30 14:28:10;;;;;;;;;;;;;;;;;;4998653;28;19921;-76
2022/04/30 14:30:38;;;;;;;;;;;;;;;;;;4995521;28;19921;-76
2022/04/30 14:33:04;;;;;;;;;;;;;;;;;;5005382;28;19993;-76
2022/04/30 14:35:31;;;;;;;;;;;;;;;;;;5018635;28;20080;-77
2022/04/30 14:37:57;;;;;;;;;;;;;;;;;;5019010;28;19916;-77
2022/04/30 14:40:23;;;;;;;;;;;;;;;;;;5006602;28;19928;-77
2022/04/30 14:42:49;;;;;;;;;;;;;;;;;;5017271;28;20211;-77
2022/04/30 14:45:15;;;;;;;;;;;;;;;;;;5000262;28;20444;-77
2022/04/30 14:47:41;;;;;;;;;;;;;;;;;;5000787;28;19925;-77
2022/04/30 14:50:07;;;;;;;;;;;;;;;;;;5018393;28;19913;-77
2022/04/30 14:52:33;;;;;;;;;;;;;;;;;;5023568;28;19913;-77
2022/04/30 14:54:59;;;;;;;;;;;;;;;;;;5018499;28;19917;-77
2022/04/30 14:57:25;;;;;;;;;;;;;;;;;;5019575;28;19924;-76
2022/04/30 14:59:51;;;;;;;;;;;;;;;;;;5004964;28;20015;-77
2022/04/30 15:02:17;;;;;;;;;;;;;;;;;;5015473;28;20341;-77
2022/04/30 15:04:43;;;;;;;;;;;;;;;;;;5017356;28;20440;-77
2022/04/30 15:07:09;;;;;;;;;;;;;;;;;;5009485;28;20127;-77
2022/04/30 15:09:35;;;;;;;;;;;;;;;;;;5017920;28;20023;-76
2022/04/30 15:12:01;;;;;;;;;;;;;;;;;;5021542;28;19927;-77
2022/04/30 15:14:27;;;;;;;;;;;;;;;;;;5037817;28;20393;-76
2022/04/30 15:16:52;;;;;;;;;;;;;;;;;;5019636;28;19920;-76
2022/04/30 15:19:18;;;;;;;;;;;;;;;;;;5033898;28;20011;-77
2022/04/30 15:21:44;;;;;;;;;;;;;;;;;;5021860;28;19921;-76
2022/04/30 15:24:10;;;;;;;;;;;;;;;;;;5031208;28;19968;-76
2022/04/30 15:26:37;;;;;;;;;;;;;;;;;;5038083;28;20379;-76
2022/04/30 15:29:04;;;;;;;;;;;;;;;;;;5018813;28;20016;-77
2022/04/30 15:31:30;;;;;;;;;;;;;;;;;;5032230;28;19913;-77
2022/04/30 15:33:56;;;;;;;;;;;;;;;;;;5029804;28;19947;-77
2022/04/30 15:36:22;;;;;;;;;;;;;;;;;;5038410;28;19944;-76
2022/04/30 15:38:47;;;;;;;;;;;;;;;;;;5036388;28;20000;-76
2022/04/30 15:41:14;;;;;;;;;;;;;;;;;;5018549;28;19913;-77
2022/04/30 15:43:40;;;;;;;;;;;;;;;;;;5035627;28;20268;-77
2022/04/30 15:46:06;;;;;;;;;;;;;;;;;;5035499;28;19921;-77
2022/04/30 15:51:23;;;;;;;;;;;;;;;;;;5040789;28;19928;-77
2022/04/30 15:53:54;;;;;;;;;;;;;;;;;;5023168;28;19917;-77
2022/04/30 15:56:20;;;;;;;;;;;;;;;;;;5020916;28;20375;-77
2022/04/30 15:58:49;;;;;;;;;;;;;;;;;;5037573;28;19921;-77
2022/04/30 16:01:15;;;;;;;;;;;;;;;;;;5013006;28;19952;-76
2022/04/30 16:03:42;;;;;;;;;;;;;;;;;;5018757;28;20397;-77
2022/04/30 16:06:07;;;;;;;;;;;;;;;;;;5024610;28;20012;-77
2022/04/30 16:08:34;;;;;;;;;;;;;;;;;;5010819;28;20048;-76
2022/04/30 16:11:00;;;;;;;;;;;;;;;;;;5015521;28;19952;-76
2022/04/30 16:13:26;;;;;;;;;;;;;;;;;;5004263;28;20446;-77
2022/04/30 16:15:52;;;;;;;;;;;;;;;;;;5017701;28;19940;-77
2022/04/30 16:18:18;;;;;;;;;;;;;;;;;;5014346;28;20273;-76
2022/04/30 16:20:44;;;;;;;;;;;;;;;;;;5014416;28;20444;-76
2022/04/30 16:23:10;;;;;;;;;;;;;;;;;;5012876;28;19921;-77
2022/04/30 16:25:36;;;;;;;;;;;;;;;;;;5015212;28;20222;-76
2022/04/30 16:28:02;;;;;;;;;;;;;;;;;;4999697;28;20355;-77
2022/04/30 16:30:28;;;;;;;;;;;;;;;;;;5015256;28;19920;-77
2022/04/30 16:32:54;;;;;;;;;;;;;;;;;;5015740;28;19922;-76
2022/04/30 16:35:22;;;;;;;;;;;;;;;;;;5014775;28;19944;-77
2022/04/30 16:37:48;;;;;;;;;;;;;;;;;;4991539;28;19921;-77
2022/04/30 16:40:14;;;;;;;;;;;;;;;;;;5016352;28;20573;-76
2022/04/30 16:42:40;;;;;;;;;;;;;;;;;;4996058;28;19922;-76
2022/04/30 16:45:06;;;;;;;;;;;;;;;;;;4998664;28;20278;-76
2022/04/30 16:47:32;;;;;;;;;;;;;;;;;;5001557;28;20023;-76
2022/04/30 16:49:58;;;;;;;;;;;;;;;;;;4994213;28;19964;-76
2022/04/30 16:52:24;;;;;;;;;;;;;;;;;;5001984;28;20060;-77
2022/04/30 16:57:35;;;;;;;;;;;;;;;;;;5010287;28;20614;-76
2022/04/30 17:00:00;;;;;;;;;;;;;;;;;;4996177;28;20369;-76
2022/04/30 17:02:27;;;;;;;;;;;;;;;;;;5015263;28;20168;-76
2022/04/30 17:04:53;;;;;;;;;;;;;;;;;;5001074;28;19921;-77
2022/04/30 17:07:20;;;;;;;;;;;;;;;;;;4998848;28;20027;-77
2022/04/30 17:09:47;;;;;;;;;;;;;;;;;;5007942;28;20386;-76
2022/04/30 17:12:13;;;;;;;;;;;;;;;;;;5003355;28;20500;-76
2022/04/30 17:14:39;;;;;;;;;;;;;;;;;;5002106;28;19925;-77
2022/04/30 17:17:04;;;;;;;;;;;;;;;;;;5013736;28;19917;-76
2022/04/30 17:19:30;;;;;;;;;;;;;;;;;;5016016;28;19917;-76
2022/04/30 17:21:57;;;;;;;;;;;;;;;;;;5000957;28;19960;-76
2022/04/30 17:24:23;;;;;;;;;;;;;;;;;;5004554;28;20434;-77
2022/04/30 17:26:50;;;;;;;;;;;;;;;;;;5001023;28;19917;-77
2022/04/30 17:29:16;;;;;;;;;;;;;;;;;;5019562;28;20314;-76
2022/04/30 17:39:56;;;;;;;;;;;;;;;;;;5013933;28;20025;-76